Time;durP1;ratioP1;P1;durP2;ratioP2;P2;SDS_P1;SDS_P2;PMS_P1;PMS_P2;Temp;Humidity;BMP_temperature;BMP_pressure;BME280_temperature;BME280_humidity;BME280_pressure;Samples;Min_cycle;Max_cycle;Signal;HPM_P1;HPM_P2
2023/10/27 00:01:44;;;;;;;6.95;4.05;;;9.30;99.90;;;;;;5018280;28;20045;-70
2023/10/27 00:04:10;;;;;;;8.52;4.13;;;9.20;99.90;;;;;;5024624;28;20045;-70
2023/10/27 00:06:35;;;;;;;9.32;3.95;;;9.20;99.90;;;;;;5002862;28;20049;-70
2023/10/27 00:09:01;;;;;;;8.50;4.28;;;9.20;99.90;;;;;;5016205;28;20137;-70
2023/10/27 00:11:27;;;;;;;6.65;3.75;;;9.20;99.90;;;;;;4992680;28;20040;-70
2023/10/27 00:13:54;;;;;;;7.40;4.38;;;9.20;99.90;;;;;;5019103;28;20136;-70
2023/10/27 00:16:19;;;;;;;7.28;4.38;;;9.20;99.90;;;;;;5012875;28;20045;-70
2023/10/27 00:18:45;;;;;;;7.03;3.40;;;9.20;99.90;;;;;;5016650;28;20038;-70
2023/10/27 00:21:11;;;;;;;6.95;3.75;;;9.20;99.90;;;;;;5023424;28;20041;-70
2023/10/27 00:23:37;;;;;;;6.15;3.30;;;9.20;99.90;;;;;;5017264;28;20038;-70
2023/10/27 00:26:03;;;;;;;6.65;3.65;;;9.20;99.90;;;;;;5011178;28;20053;-70
2023/10/27 00:28:29;;;;;;;11.80;3.70;;;9.20;99.90;;;;;;5019186;28;20056;-70
2023/10/27 00:30:55;;;;;;;6.97;3.85;;;9.20;99.90;;;;;;5022157;28;20052;-69
2023/10/27 00:33:21;;;;;;;7.18;3.42;;;9.20;99.90;;;;;;5002227;28;20041;-69
2023/10/27 00:35:53;;;;;;;5.28;2.55;;;9.20;99.90;;;;;;5003495;28;20054;-70
2023/10/27 00:38:20;;;;;;;8.32;3.60;;;9.20;99.90;;;;;;5001306;28;20414;-70
2023/10/27 00:40:46;;;;;;;7.63;3.58;;;9.20;99.90;;;;;;4992958;28;20510;-70
2023/10/27 00:43:16;;;;;;;5.40;2.63;;;9.20;99.90;;;;;;4998447;28;20048;-70
2023/10/27 00:45:52;;;;;;;7.57;3.72;;;9.20;99.90;;;;;;5018602;28;20045;-70
2023/10/27 00:48:19;;;;;;;9.68;3.92;;;9.20;99.90;;;;;;5005513;28;20049;-70
2023/10/27 00:50:46;;;;;;;5.88;3.17;;;9.20;99.90;;;;;;5002837;28;20115;-70
2023/10/27 00:53:13;;;;;;;6.47;3.53;;;9.20;99.90;;;;;;4999229;28;20477;-69
2023/10/27 00:55:41;;;;;;;6.57;3.78;;;9.20;99.90;;;;;;5013229;28;20046;-70
2023/10/27 00:58:08;;;;;;;7.47;2.65;;;9.20;99.90;;;;;;5021078;28;20049;-70
2023/10/27 01:00:35;;;;;;;4.88;3.42;;;9.20;99.90;;;;;;5002962;28;20135;-70
2023/10/27 01:03:01;;;;;;;5.25;2.88;;;9.20;99.90;;;;;;5019517;28;20582;-70
2023/10/27 01:05:26;;;;;;;4.38;3.05;;;9.20;99.90;;;;;;5010506;28;20042;-70
2023/10/27 01:07:52;;;;;;;6.15;2.72;;;9.20;99.90;;;;;;5005216;28;20058;-70
2023/10/27 01:10:19;;;;;;;6.43;3.35;;;9.20;99.90;;;;;;5017107;28;20072;-70
2023/10/27 01:12:47;;;;;;;8.52;3.72;;;9.20;99.90;;;;;;5017887;28;20046;-70
2023/10/27 01:15:13;;;;;;;5.72;3.08;;;9.20;99.90;;;;;;5015242;28;20494;-70
2023/10/27 01:17:39;;;;;;;7.32;3.17;;;9.20;99.90;;;;;;5002863;28;20044;-70
2023/10/27 01:20:05;;;;;;;6.95;2.95;;;9.20;99.90;;;;;;5018386;28;20107;-70
2023/10/27 01:22:33;;;;;;;5.25;3.35;;;9.20;99.90;;;;;;5017472;28;20235;-70
2023/10/27 01:24:59;;;;;;;7.05;3.70;;;9.20;99.90;;;;;;4986441;28;20046;-70
2023/10/27 01:27:25;;;;;;;4.80;2.88;;;9.20;99.90;;;;;;5016497;28;20037;-70
2023/10/27 01:29:50;;;;;;;6.78;3.70;;;9.20;99.90;;;;;;5008080;28;20101;-70
2023/10/27 01:32:16;;;;;;;4.28;2.90;;;9.20;99.90;;;;;;5025299;28;20030;-70
2023/10/27 01:34:42;;;;;;;7.63;4.45;;;9.20;99.90;;;;;;4994536;28;20595;-70
2023/10/27 01:37:07;;;;;;;7.75;3.92;;;9.20;99.90;;;;;;5019123;28;20539;-70
2023/10/27 01:39:33;;;;;;;9.25;3.47;;;9.20;99.90;;;;;;5002725;28;20038;-70
2023/10/27 01:41:59;;;;;;;5.07;2.92;;;9.30;99.90;;;;;;5012898;28;20520;-70
2023/10/27 01:44:24;;;;;;;8.07;3.42;;;9.20;99.90;;;;;;5012757;28;20041;-70
2023/10/27 01:46:50;;;;;;;5.95;3.08;;;9.20;99.90;;;;;;5021913;28;20452;-70
2023/10/27 01:49:16;;;;;;;5.43;3.20;;;9.30;99.90;;;;;;5021799;28;20069;-69
2023/10/27 01:51:42;;;;;;;6.10;3.30;;;9.20;99.90;;;;;;4993634;28;20116;-70
2023/10/27 01:54:08;;;;;;;6.85;3.35;;;9.30;99.90;;;;;;5015311;28;20049;-70
2023/10/27 01:56:34;;;;;;;9.70;4.25;;;9.30;99.90;;;;;;5019973;28;20493;-70
2023/10/27 01:59:00;;;;;;;5.90;3.88;;;9.30;99.90;;;;;;5002753;28;20037;-70
2023/10/27 02:01:26;;;;;;;6.13;3.53;;;9.30;99.90;;;;;;4997499;28;20057;-70
2023/10/27 02:03:51;;;;;;;9.65;4.57;;;9.30;99.90;;;;;;5013234;28;20110;-70
2023/10/27 02:06:25;;;;;;;6.20;3.33;;;9.30;99.90;;;;;;5003044;28;20044;-70
2023/10/27 02:08:52;;;;;;;8.30;3.25;;;9.30;99.90;;;;;;5014638;28;20423;-70
2023/10/27 02:11:18;;;;;;;5.90;3.08;;;9.30;99.90;;;;;;4994960;28;20045;-70
2023/10/27 02:13:44;;;;;;;6.05;3.17;;;9.30;99.90;;;;;;5015078;28;20149;-70
2023/10/27 02:16:10;;;;;;;6.88;3.33;;;9.30;99.90;;;;;;5020477;28;20211;-70
2023/10/27 02:18:35;;;;;;;6.95;3.70;;;9.30;99.90;;;;;;4988689;28;20370;-70
2023/10/27 02:21:01;;;;;;;6.82;4.15;;;9.30;99.90;;;;;;5012289;28;20073;-70
2023/10/27 02:23:27;;;;;;;8.43;4.00;;;9.30;99.90;;;;;;5017720;28;20053;-70
2023/10/27 02:25:54;;;;;;;8.18;3.95;;;9.30;99.90;;;;;;5017402;28;20037;-70
2023/10/27 02:28:20;;;;;;;6.00;3.70;;;9.30;99.90;;;;;;5006169;28;20456;-70
2023/10/27 02:30:46;;;;;;;6.43;3.13;;;9.30;99.90;;;;;;5013984;28;20038;-70
2023/10/27 02:33:13;;;;;;;7.97;3.38;;;9.30;99.90;;;;;;4996946;28;20048;-70
2023/10/27 02:35:38;;;;;;;5.65;3.40;;;9.30;99.90;;;;;;5018393;28;20116;-70
2023/10/27 02:38:04;;;;;;;5.13;3.45;;;9.30;99.90;;;;;;5011070;28;20133;-70
2023/10/27 02:40:35;;;;;;;8.02;3.55;;;9.30;99.90;;;;;;5001296;28;20502;-70
2023/10/27 02:43:00;;;;;;;8.50;4.35;;;9.40;99.90;;;;;;4999466;28;20045;-70
2023/10/27 02:45:26;;;;;;;5.20;2.97;;;9.30;99.90;;;;;;5000532;28;20047;-70
2023/10/27 02:47:52;;;;;;;6.18;4.03;;;9.30;99.90;;;;;;4994728;28;20042;-70
2023/10/27 02:50:17;;;;;;;6.00;2.92;;;9.30;99.90;;;;;;5013265;28;20026;-69
2023/10/27 02:52:43;;;;;;;5.68;3.13;;;9.30;99.90;;;;;;5018849;28;20107;-70
2023/10/27 02:55:09;;;;;;;6.00;3.08;;;9.40;99.90;;;;;;4999236;28;20402;-70
2023/10/27 02:57:35;;;;;;;5.45;3.55;;;9.30;99.90;;;;;;5006378;28;20095;-70
2023/10/27 03:00:00;;;;;;;4.53;3.05;;;9.30;99.90;;;;;;5017367;28;20740;-70
2023/10/27 03:02:27;;;;;;;5.18;3.63;;;9.40;99.90;;;;;;5019908;28;20057;-70
2023/10/27 03:04:55;;;;;;;4.57;2.70;;;9.40;99.90;;;;;;5012414;28;20062;-70
2023/10/27 03:07:21;;;;;;;5.07;2.95;;;9.40;99.90;;;;;;4994627;28;20057;-70
2023/10/27 03:09:47;;;;;;;4.00;2.40;;;9.40;99.90;;;;;;5018160;28;20056;-70
2023/10/27 03:12:12;;;;;;;6.32;3.40;;;9.40;99.90;;;;;;5019935;28;20048;-70
2023/10/27 03:14:38;;;;;;;5.65;3.22;;;9.40;99.90;;;;;;5001205;28;20068;-70
2023/10/27 03:17:04;;;;;;;5.57;2.97;;;9.40;99.90;;;;;;5019285;28;20133;-70
2023/10/27 03:19:29;;;;;;;8.50;3.28;;;9.40;99.90;;;;;;5011264;28;20045;-70
2023/10/27 03:21:56;;;;;;;4.22;2.47;;;9.40;99.90;;;;;;5022175;28;20064;-70
2023/10/27 03:24:22;;;;;;;7.72;3.28;;;9.40;99.90;;;;;;5015399;28;20523;-70
2023/10/27 03:26:48;;;;;;;5.40;3.15;;;9.50;99.90;;;;;;4992946;28;20526;-70
2023/10/27 03:29:13;;;;;;;4.72;2.65;;;9.50;99.90;;;;;;5019762;28;20344;-70
2023/10/27 03:31:39;;;;;;;6.25;3.15;;;9.50;99.90;;;;;;5022142;28;20038;-70
2023/10/27 03:34:05;;;;;;;6.78;2.72;;;9.50;99.90;;;;;;5017255;28;20401;-70
2023/10/27 03:36:30;;;;;;;3.25;2.50;;;9.50;99.90;;;;;;5005143;28;20095;-70
2023/10/27 03:38:56;;;;;;;5.65;2.38;;;9.50;99.90;;;;;;5014462;28;20124;-70
2023/10/27 03:41:22;;;;;;;3.60;1.85;;;9.40;99.90;;;;;;5020654;28;20925;-70
2023/10/27 03:43:48;;;;;;;5.35;2.67;;;9.50;99.90;;;;;;5025147;28;20065;-70
2023/10/27 03:46:13;;;;;;;4.35;2.67;;;9.40;99.90;;;;;;5017076;28;20029;-70
2023/10/27 03:48:40;;;;;;;5.13;2.50;;;9.40;99.90;;;;;;4999917;28;20108;-70
2023/10/27 03:51:06;;;;;;;5.90;2.90;;;9.40;99.90;;;;;;5005981;28;20277;-70
2023/10/27 03:53:32;;;;;;;4.50;1.95;;;9.40;99.90;;;;;;4995030;28;20045;-72
2023/10/27 03:55:58;;;;;;;5.80;2.70;;;9.40;99.90;;;;;;5009200;28;20072;-69
2023/10/27 03:58:23;;;;;;;6.55;2.88;;;9.40;99.90;;;;;;5017779;28;20041;-69
2023/10/27 04:00:49;;;;;;;4.25;1.88;;;9.40;99.90;;;;;;5019252;28;20038;-70
2023/10/27 04:03:15;;;;;;;5.57;2.72;;;9.40;99.90;;;;;;5017868;28;20414;-70
2023/10/27 04:05:41;;;;;;;2.78;1.98;;;9.40;99.90;;;;;;4997048;28;20045;-70
2023/10/27 04:08:06;;;;;;;4.60;2.30;;;9.40;99.90;;;;;;5016801;28;20061;-69
2023/10/27 04:10:37;;;;;;;6.65;3.03;;;9.40;99.90;;;;;;5019422;28;20136;-70
2023/10/27 04:13:04;;;;;;;5.72;3.33;;;9.40;99.90;;;;;;5028667;28;20045;-69
2023/10/27 04:15:29;;;;;;;6.47;2.83;;;9.30;99.90;;;;;;5007944;28;20045;-70
2023/10/27 04:17:55;;;;;;;5.38;2.58;;;9.30;99.90;;;;;;5001926;28;20056;-70
2023/10/27 04:20:21;;;;;;;4.97;2.03;;;9.30;99.90;;;;;;5019317;28;20398;-70
2023/10/27 04:22:47;;;;;;;5.95;2.22;;;9.30;99.90;;;;;;4998394;28;20375;-70
2023/10/27 04:25:13;;;;;;;5.32;2.50;;;9.30;99.90;;;;;;4996774;28;20049;-70
2023/10/27 04:27:39;;;;;;;5.93;2.72;;;9.30;99.90;;;;;;5017186;28;20049;-70
2023/10/27 04:30:11;;;;;;;4.72;2.53;;;9.30;99.90;;;;;;5016385;28;20125;-69
2023/10/27 04:32:40;;;;;;;3.80;2.42;;;9.30;99.90;;;;;;5017606;28;20490;-69
2023/10/27 04:35:07;;;;;;;6.82;3.28;;;9.30;99.90;;;;;;5024856;28;20041;-70
2023/10/27 04:37:33;;;;;;;4.07;2.58;;;9.30;99.90;;;;;;4987873;28;20050;-69
2023/10/27 04:40:00;;;;;;;4.45;2.17;;;9.30;99.90;;;;;;5002883;28;20128;-70
2023/10/27 04:42:26;;;;;;;5.63;2.45;;;9.30;99.90;;;;;;5011560;28;20473;-70
2023/10/27 04:44:52;;;;;;;4.88;2.75;;;9.20;99.90;;;;;;4996762;28;20045;-70
2023/10/27 04:47:19;;;;;;;6.88;2.90;;;9.20;99.90;;;;;;5022281;28;20099;-70
2023/10/27 04:49:46;;;;;;;9.45;3.45;;;9.20;99.90;;;;;;5016391;28;20148;-69
2023/10/27 04:52:11;;;;;;;4.35;2.10;;;9.20;99.90;;;;;;4987984;28;20061;-70
2023/10/27 04:54:37;;;;;;;4.88;2.83;;;9.20;99.90;;;;;;5014832;28;20041;-70
2023/10/27 04:57:03;;;;;;;5.45;2.45;;;9.20;99.90;;;;;;5000244;28;20085;-70
2023/10/27 04:59:32;;;;;;;4.40;2.30;;;9.20;99.90;;;;;;4989117;28;20056;-70
2023/10/27 05:01:59;;;;;;;5.88;2.90;;;9.20;99.90;;;;;;5018624;28;20041;-70
2023/10/27 05:04:25;;;;;;;3.65;2.05;;;9.10;99.90;;;;;;5025609;28;20052;-70
2023/10/27 05:06:51;;;;;;;4.10;2.33;;;9.10;99.90;;;;;;5021584;28;20116;-70
2023/10/27 05:09:18;;;;;;;4.28;2.38;;;9.10;99.90;;;;;;5025486;28;20133;-70
2023/10/27 05:11:45;;;;;;;4.50;2.75;;;9.10;99.90;;;;;;5014873;28;20041;-70
2023/10/27 05:14:12;;;;;;;7.10;2.88;;;9.10;99.90;;;;;;5016655;28;20081;-70
2023/10/27 05:16:38;;;;;;;5.50;3.15;;;9.10;99.90;;;;;;4980358;28;20045;-70
2023/10/27 05:19:04;;;;;;;4.88;2.38;;;9.10;99.90;;;;;;5006449;28;20041;-70
2023/10/27 05:21:30;;;;;;;4.85;2.45;;;9.10;99.90;;;;;;4991993;28;20572;-70
2023/10/27 05:23:56;;;;;;;6.93;2.83;;;9.00;99.90;;;;;;4998044;28;20042;-70
2023/10/27 05:26:22;;;;;;;4.47;2.83;;;9.00;99.90;;;;;;4988307;28;20079;-70
2023/10/27 05:28:49;;;;;;;4.25;2.30;;;9.00;99.90;;;;;;5007878;28;20053;-70
2023/10/27 05:31:15;;;;;;;4.97;2.42;;;9.00;99.90;;;;;;5006973;28;20033;-70
2023/10/27 05:33:40;;;;;;;4.45;2.83;;;9.00;99.90;;;;;;5001671;28;20517;-70
2023/10/27 05:36:06;;;;;;;4.53;2.67;;;9.00;99.90;;;;;;5018013;28;20041;-70
2023/10/27 05:38:32;;;;;;;4.20;2.05;;;9.00;99.90;;;;;;4987207;28;20129;-70
2023/10/27 05:40:58;;;;;;;5.63;2.47;;;9.00;99.90;;;;;;5010408;28;20049;-71
2023/10/27 05:43:24;;;;;;;4.30;2.33;;;9.00;99.90;;;;;;5004328;28;20053;-70
2023/10/27 05:45:50;;;;;;;4.32;2.55;;;9.00;99.90;;;;;;5019931;28;20051;-70
2023/10/27 05:48:16;;;;;;;4.20;2.45;;;9.00;99.90;;;;;;4991903;28;20121;-70
2023/10/27 05:50:42;;;;;;;7.13;3.58;;;8.90;99.90;;;;;;5009205;28;20040;-70
2023/10/27 05:53:07;;;;;;;5.55;2.75;;;8.90;99.90;;;;;;5018544;28;20045;-70
2023/10/27 05:55:33;;;;;;;6.72;3.55;;;8.90;99.90;;;;;;5018251;28;20037;-70
2023/10/27 05:57:59;;;;;;;5.47;3.13;;;8.90;99.90;;;;;;4998900;28;20122;-70
2023/10/27 06:00:25;;;;;;;6.25;3.03;;;8.90;99.90;;;;;;4994502;28;20046;-70
2023/10/27 06:02:53;;;;;;;5.28;3.15;;;8.90;99.90;;;;;;5000462;28;20044;-70
2023/10/27 06:05:20;;;;;;;5.53;2.72;;;8.90;99.90;;;;;;4998418;28;20045;-70
2023/10/27 06:07:47;;;;;;;7.18;3.45;;;8.90;99.90;;;;;;4967275;28;20493;-70
2023/10/27 06:10:13;;;;;;;7.30;3.17;;;8.90;99.90;;;;;;5020606;28;20533;-70
2023/10/27 06:12:38;;;;;;;4.80;2.67;;;8.90;99.90;;;;;;5023086;28;20041;-70
2023/10/27 06:15:05;;;;;;;5.78;3.08;;;8.90;99.90;;;;;;5021033;28;20177;-70
2023/10/27 06:17:32;;;;;;;2.35;1.55;;;8.90;99.90;;;;;;5006681;28;20062;-70
2023/10/27 06:19:58;;;;;;;5.25;2.72;;;8.90;99.90;;;;;;5016199;28;20053;-71
2023/10/27 06:22:24;;;;;;;4.70;2.85;;;8.90;99.90;;;;;;4983991;28;20057;-69
2023/10/27 06:24:50;;;;;;;6.05;2.92;;;8.90;99.90;;;;;;5016979;28;20359;-70
2023/10/27 06:27:15;;;;;;;6.65;2.88;;;8.90;99.90;;;;;;5010429;28;20046;-69
2023/10/27 06:29:41;;;;;;;3.88;2.35;;;8.90;99.90;;;;;;4982581;28;20473;-70
2023/10/27 06:32:07;;;;;;;5.72;2.85;;;8.80;99.90;;;;;;5001049;28;20186;-70
2023/10/27 06:34:33;;;;;;;8.63;3.85;;;8.90;99.90;;;;;;4983620;28;20121;-69
2023/10/27 06:36:59;;;;;;;5.55;3.00;;;8.90;99.90;;;;;;4993667;28;20050;-70
2023/10/27 06:39:25;;;;;;;4.13;2.60;;;8.90;99.90;;;;;;5019043;28;20048;-70
2023/10/27 06:41:50;;;;;;;6.00;3.90;;;8.90;99.90;;;;;;5017852;28;20047;-70
2023/10/27 06:44:16;;;;;;;7.03;3.28;;;8.90;99.90;;;;;;5000261;28;20481;-69
2023/10/27 06:46:44;;;;;;;4.07;2.45;;;8.90;99.90;;;;;;5013216;28;20413;-70
2023/10/27 06:49:10;;;;;;;5.15;2.50;;;8.90;99.90;;;;;;4998940;28;21147;-70
2023/10/27 06:51:36;;;;;;;5.35;3.42;;;8.90;99.90;;;;;;5020108;28;20046;-70
2023/10/27 06:54:01;;;;;;;5.05;3.10;;;9.00;99.90;;;;;;5014751;28;20375;-70
2023/10/27 06:56:28;;;;;;;8.40;3.38;;;8.90;99.90;;;;;;5015749;28;20034;-70
2023/10/27 06:58:54;;;;;;;6.22;3.08;;;9.00;99.90;;;;;;5013448;28;20502;-69
2023/10/27 07:01:19;;;;;;;7.38;2.90;;;9.00;99.90;;;;;;4986804;28;20073;-70
2023/10/27 07:03:45;;;;;;;4.50;2.38;;;9.00;99.90;;;;;;5015034;28;20478;-70
2023/10/27 07:06:12;;;;;;;7.07;3.88;;;9.00;99.90;;;;;;5006664;28;20038;-70
2023/10/27 07:08:38;;;;;;;7.15;3.60;;;9.00;99.90;;;;;;5020760;28;20089;-70
2023/10/27 07:11:04;;;;;;;5.80;2.38;;;9.00;99.90;;;;;;5022862;28;20080;-70
2023/10/27 07:13:30;;;;;;;7.18;3.80;;;9.00;99.90;;;;;;5016500;28;20071;-70
2023/10/27 07:15:56;;;;;;;5.65;2.80;;;9.00;99.90;;;;;;4996891;28;20232;-71
2023/10/27 07:18:22;;;;;;;6.30;3.17;;;9.10;99.90;;;;;;5016959;28;20052;-71
2023/10/27 07:20:56;;;;;;;7.05;2.80;;;9.00;99.90;;;;;;5003197;28;20107;-70
2023/10/27 07:23:22;;;;;;;9.13;3.67;;;9.00;99.90;;;;;;5015271;28;20104;-70
2023/10/27 07:25:48;;;;;;;6.88;2.85;;;9.00;99.90;;;;;;5023508;28;20078;-70
2023/10/27 07:28:14;;;;;;;7.88;3.00;;;9.10;99.90;;;;;;5005034;28;20042;-70
2023/10/27 07:30:39;;;;;;;6.30;3.42;;;9.10;99.90;;;;;;5007572;28;20103;-70
2023/10/27 07:33:05;;;;;;;4.72;2.85;;;9.10;99.90;;;;;;4990693;28;20025;-69
2023/10/27 07:35:31;;;;;;;3.83;2.60;;;9.10;99.90;;;;;;5018229;28;20044;-70
2023/10/27 07:37:58;;;;;;;6.53;2.85;;;9.10;99.90;;;;;;5020567;28;20033;-70
2023/10/27 07:40:24;;;;;;;6.72;3.45;;;9.10;99.90;;;;;;5024678;28;20054;-70
2023/10/27 07:42:50;;;;;;;4.97;2.92;;;9.10;99.90;;;;;;5023457;28;20133;-70
2023/10/27 07:45:16;;;;;;;4.82;3.13;;;9.10;99.90;;;;;;5012670;28;20112;-70
2023/10/27 07:47:41;;;;;;;5.40;3.13;;;9.20;99.90;;;;;;5005030;28;20054;-70
2023/10/27 07:50:07;;;;;;;4.95;2.75;;;9.10;99.90;;;;;;5004107;28;20044;-70
2023/10/27 07:52:34;;;;;;;7.88;3.55;;;9.20;99.90;;;;;;5009136;28;20568;-70
2023/10/27 07:55:00;;;;;;;5.47;3.08;;;9.20;99.90;;;;;;4996741;28;20084;-71
2023/10/27 07:57:27;;;;;;;5.18;2.50;;;9.20;99.90;;;;;;5017614;28;20041;-70
2023/10/27 07:59:52;;;;;;;7.05;3.30;;;9.20;99.90;;;;;;5002585;28;20073;-70
2023/10/27 08:02:18;;;;;;;9.68;2.67;;;9.20;99.90;;;;;;4984441;28;20402;-70
2023/10/27 08:04:44;;;;;;;5.95;2.67;;;9.20;99.90;;;;;;5012457;28;20120;-70
2023/10/27 08:07:09;;;;;;;5.63;2.60;;;9.20;99.90;;;;;;5015784;28;20545;-70
2023/10/27 08:09:35;;;;;;;5.30;2.67;;;9.20;99.90;;;;;;5018482;28;20049;-69
2023/10/27 08:12:01;;;;;;;5.63;2.67;;;9.30;99.90;;;;;;5016059;28;20144;-70
2023/10/27 08:14:27;;;;;;;5.43;2.72;;;9.30;99.90;;;;;;5016419;28;20053;-69
2023/10/27 08:16:53;;;;;;;7.88;2.70;;;9.30;99.90;;;;;;5007735;28;20055;-70
2023/10/27 08:19:19;;;;;;;6.95;2.92;;;9.30;99.90;;;;;;5001205;28;20045;-70
2023/10/27 08:21:46;;;;;;;4.07;1.80;;;9.30;99.90;;;;;;5013956;28;20076;-70
2023/10/27 08:24:13;;;;;;;7.85;2.92;;;9.40;99.90;;;;;;4989810;28;20042;-70
2023/10/27 08:26:38;;;;;;;8.55;3.63;;;9.30;99.90;;;;;;5020555;28;20042;-71
2023/10/27 08:29:04;;;;;;;4.93;2.60;;;9.40;99.90;;;;;;4986416;28;20088;-70
2023/10/27 08:31:30;;;;;;;6.00;3.03;;;9.40;99.90;;;;;;4978736;28;20041;-71
2023/10/27 08:33:59;;;;;;;5.25;2.72;;;9.40;99.90;;;;;;5021667;28;20037;-70
2023/10/27 08:36:25;;;;;;;7.18;3.85;;;9.40;99.90;;;;;;5002383;28;20506;-71
2023/10/27 08:38:54;;;;;;;6.63;2.75;;;9.40;99.90;;;;;;5018616;28;20041;-70
2023/10/27 08:41:25;;;;;;;3.70;2.53;;;9.50;99.90;;;;;;5012222;28;20038;-70
2023/10/27 08:43:52;;;;;;;5.80;3.10;;;9.50;99.90;;;;;;5001729;28;20063;-70
2023/10/27 08:46:19;;;;;;;5.97;2.53;;;9.50;99.90;;;;;;4998188;28;20053;-70
2023/10/27 08:48:45;;;;;;;4.80;2.85;;;9.50;99.90;;;;;;5013896;28;20049;-70
2023/10/27 08:51:13;;;;;;;6.63;3.08;;;9.50;99.90;;;;;;4982226;28;20045;-70
2023/10/27 08:53:46;;;;;;;4.93;2.90;;;9.50;99.90;;;;;;5021574;28;20148;-69
2023/10/27 08:56:13;;;;;;;8.15;2.45;;;9.50;99.90;;;;;;5020739;28;20098;-70
2023/10/27 08:58:52;;;;;;;5.72;3.58;;;9.50;99.90;;;;;;5013409;28;20106;-70
2023/10/27 09:01:18;;;;;;;6.88;2.95;;;9.60;99.90;;;;;;4993903;28;20038;-70
2023/10/27 09:04:12;;;;;;;5.00;2.78;;;9.60;99.90;;;;;;5019811;28;20421;-70
2023/10/27 09:06:39;;;;;;;5.33;3.00;;;9.60;99.90;;;;;;5002910;28;20042;-70
2023/10/27 09:09:06;;;;;;;6.05;2.50;;;9.60;99.90;;;;;;5024869;28;20054;-69
2023/10/27 09:11:47;;;;;;;7.93;3.33;;;9.60;99.90;;;;;;5005950;28;20362;-70
2023/10/27 09:14:19;;;;;;;4.03;2.70;;;9.60;99.90;;;;;;5004333;28;20111;-70
2023/10/27 09:16:44;;;;;;;7.55;3.90;;;9.70;99.90;;;;;;5018326;28;20052;-70
2023/10/27 09:19:26;;;;;;;5.45;3.05;;;9.70;99.90;;;;;;4994487;28;20122;-70
2023/10/27 09:21:55;;;;;;;4.65;1.92;;;9.60;99.90;;;;;;4990197;28;20042;-70
2023/10/27 09:24:30;;;;;;;5.28;3.55;;;9.70;99.90;;;;;;5023932;28;20093;-70
2023/10/27 09:26:59;;;;;;;11.48;3.17;;;9.70;99.90;;;;;;4990751;28;20103;-70
2023/10/27 09:29:26;;;;;;;6.30;3.42;;;9.70;99.90;;;;;;5018821;28;20373;-70
2023/10/27 09:31:52;;;;;;;6.03;3.47;;;9.70;99.90;;;;;;5020212;28;20119;-69
2023/10/27 09:34:26;;;;;;;6.00;3.20;;;9.60;99.90;;;;;;5023534;28;20447;-70
2023/10/27 09:36:57;;;;;;;6.22;3.70;;;9.70;99.90;;;;;;5024774;28;20096;-70
2023/10/27 09:39:23;;;;;;;4.90;2.47;;;9.70;99.90;;;;;;5020563;28;20497;-69
2023/10/27 09:42:03;;;;;;;4.43;2.65;;;9.70;99.90;;;;;;5000372;28;20052;-70
2023/10/27 09:45:06;;;;;;;5.63;2.88;;;9.70;99.90;;;;;;5023562;28;20041;-69
2023/10/27 09:47:42;;;;;;;3.80;2.78;;;9.70;99.90;;;;;;5007497;28;20058;-70
2023/10/27 09:50:21;;;;;;;7.63;2.85;;;9.70;99.90;;;;;;5007350;28;20045;-70
2023/10/27 09:52:49;;;;;;;4.45;1.98;;;9.70;99.90;;;;;;5023379;28;20074;-70
2023/10/27 09:55:19;;;;;;;4.70;2.35;;;9.70;99.90;;;;;;5007410;28;20432;-70
2023/10/27 09:57:45;;;;;;;4.53;2.47;;;9.70;99.90;;;;;;5013307;28;20054;-69
2023/10/27 10:00:13;;;;;;;5.70;2.80;;;9.70;99.90;;;;;;5011456;28;20041;-70
2023/10/27 10:02:44;;;;;;;7.60;2.78;;;9.70;99.90;;;;;;5003897;28;20113;-70
2023/10/27 10:05:11;;;;;;;3.47;1.95;;;9.80;99.90;;;;;;5016215;28;20120;-70
2023/10/27 10:07:41;;;;;;;4.05;2.58;;;9.70;99.90;;;;;;5001806;28;20088;-70
2023/10/27 10:10:33;;;;;;;4.25;1.95;;;9.80;99.90;;;;;;5021630;28;20061;-70
2023/10/27 10:13:14;;;;;;;5.32;2.50;;;9.80;99.90;;;;;;5016661;28;20038;-69
2023/10/27 10:15:45;;;;;;;5.45;2.50;;;9.80;99.90;;;;;;5004116;28;20042;-69
2023/10/27 10:18:20;;;;;;;5.43;2.72;;;9.80;99.90;;;;;;5013382;28;20449;-69
2023/10/27 10:20:49;;;;;;;4.15;2.28;;;9.90;99.90;;;;;;5017020;28;20049;-69
2023/10/27 10:23:15;;;;;;;5.05;3.08;;;9.90;99.90;;;;;;5014505;28;20073;-69
2023/10/27 10:25:57;;;;;;;6.38;2.72;;;9.90;99.90;;;;;;4990965;28;20052;-69
2023/10/27 10:28:33;;;;;;;4.03;2.30;;;9.90;99.90;;;;;;4999838;28;20046;-69
2023/10/27 10:31:09;;;;;;;5.95;2.83;;;9.90;99.90;;;;;;5001440;28;20413;-69
2023/10/27 10:33:35;;;;;;;5.05;2.53;;;9.90;99.90;;;;;;5001726;28;20446;-69
2023/10/27 10:36:22;;;;;;;5.72;3.33;;;9.90;99.90;;;;;;5008249;28;20482;-69
2023/10/27 10:38:53;;;;;;;6.68;2.97;;;9.90;99.90;;;;;;5015292;28;20041;-69
2023/10/27 10:41:19;;;;;;;5.00;2.28;;;9.90;99.90;;;;;;5018017;28;20049;-69
2023/10/27 10:44:12;;;;;;;4.00;1.98;;;9.90;99.90;;;;;;5015466;28;20129;-69
2023/10/27 10:46:38;;;;;;;3.63;2.42;;;9.90;99.90;;;;;;4990559;28;20121;-69
2023/10/27 10:49:04;;;;;;;4.47;2.42;;;10.00;99.90;;;;;;5022458;28;20117;-69
2023/10/27 10:51:36;;;;;;;5.35;2.17;;;9.90;99.90;;;;;;5003463;28;20209;-68
2023/10/27 10:54:02;;;;;;;6.25;3.08;;;9.90;99.90;;;;;;5011993;28;20082;-68
2023/10/27 10:56:28;;;;;;;4.45;2.42;;;9.90;99.90;;;;;;5019290;28;20037;-68
2023/10/27 10:58:54;;;;;;;5.68;2.53;;;9.90;99.90;;;;;;5020010;28;20073;-69
2023/10/27 11:01:22;;;;;;;5.65;3.13;;;9.90;99.90;;;;;;5018407;28;20092;-69
2023/10/27 11:03:50;;;;;;;5.90;2.10;;;10.00;99.90;;;;;;4974118;28;20391;-69
2023/10/27 11:06:24;;;;;;;4.40;1.95;;;10.00;99.90;;;;;;4998844;28;20454;-68
2023/10/27 11:08:51;;;;;;;3.45;2.28;;;10.00;99.90;;;;;;5020887;28;20059;-68
2023/10/27 11:11:17;;;;;;;5.90;2.88;;;10.00;99.90;;;;;;5016762;28;20041;-68
2023/10/27 11:13:49;;;;;;;15.50;3.05;;;10.10;99.90;;;;;;5013611;28;20200;-68
2023/10/27 11:16:26;;;;;;;5.07;3.05;;;10.10;99.90;;;;;;5015222;28;20042;-67
2023/10/27 11:18:57;;;;;;;5.28;2.75;;;10.10;99.90;;;;;;5021419;28;20094;-67
2023/10/27 11:21:35;;;;;;;4.75;2.88;;;10.10;99.90;;;;;;5025992;28;20052;-67
2023/10/27 11:24:07;;;;;;;6.40;3.22;;;10.10;99.90;;;;;;5016082;28;20486;-67
2023/10/27 11:26:40;;;;;;;5.38;2.30;;;10.20;99.90;;;;;;5018809;28;20478;-67
2023/10/27 11:29:08;;;;;;;5.72;2.85;;;10.20;99.90;;;;;;5018265;28;20042;-67
2023/10/27 11:31:45;;;;;;;4.20;2.63;;;10.20;99.90;;;;;;5013891;28;20090;-67
2023/10/27 11:34:12;;;;;;;5.88;3.05;;;10.20;99.90;;;;;;5004002;28;20049;-67
2023/10/27 11:36:43;;;;;;;6.97;2.53;;;10.20;99.90;;;;;;5019815;28;20140;-67
2023/10/27 11:39:14;;;;;;;5.82;3.55;;;10.30;99.90;;;;;;5019785;28;20447;-67
2023/10/27 11:41:44;;;;;;;4.22;2.83;;;10.30;99.90;;;;;;5028037;28;20046;-67
2023/10/27 11:44:10;;;;;;;3.70;2.00;;;10.30;99.90;;;;;;5019012;28;20085;-67
2023/10/27 11:46:36;;;;;;;4.82;2.55;;;10.30;99.90;;;;;;5020540;28;20319;-67
2023/10/27 11:49:02;;;;;;;5.32;2.55;;;10.30;99.90;;;;;;4999100;28;20121;-67
2023/10/27 11:51:29;;;;;;;4.57;2.90;;;10.30;99.90;;;;;;5012108;28;20045;-67
2023/10/27 11:53:55;;;;;;;5.13;2.58;;;10.30;99.90;;;;;;5018837;28;20079;-67
2023/10/27 11:56:21;;;;;;;8.20;2.58;;;10.30;99.90;;;;;;5016495;28;20072;-67
2023/10/27 11:58:47;;;;;;;5.85;2.85;;;10.30;99.90;;;;;;5019722;28;20440;-67
2023/10/27 12:01:12;;;;;;;6.10;3.00;;;10.30;99.90;;;;;;5005915;28;20046;-67
2023/10/27 12:03:39;;;;;;;5.57;3.85;;;10.30;99.90;;;;;;5015455;28;20045;-67
2023/10/27 12:06:05;;;;;;;4.80;2.70;;;10.30;99.90;;;;;;5021007;28;20069;-67
2023/10/27 12:08:30;;;;;;;7.53;2.33;;;10.30;99.90;;;;;;5022663;28;20108;-67
2023/10/27 12:10:56;;;;;;;4.68;2.95;;;10.30;99.90;;;;;;5012358;28;20366;-67
2023/10/27 12:13:23;;;;;;;4.05;2.58;;;10.30;99.90;;;;;;4999260;28;20172;-67
2023/10/27 12:15:49;;;;;;;3.63;1.88;;;10.30;99.90;;;;;;5004160;28;20045;-67
2023/10/27 12:18:16;;;;;;;6.35;2.95;;;10.40;99.90;;;;;;5023977;28;20061;-67
2023/10/27 12:20:42;;;;;;;3.58;2.35;;;10.40;99.90;;;;;;5011735;28;20121;-67
2023/10/27 12:23:09;;;;;;;5.97;2.45;;;10.30;99.90;;;;;;5015260;28;20042;-67
2023/10/27 12:25:35;;;;;;;3.83;2.28;;;10.40;99.90;;;;;;5021912;28;20050;-66
2023/10/27 12:28:02;;;;;;;7.32;3.08;;;10.40;99.90;;;;;;5015968;28;20046;-67
2023/10/27 12:30:30;;;;;;;4.15;2.65;;;10.40;99.90;;;;;;5019292;28;20059;-66
2023/10/27 12:32:59;;;;;;;5.53;2.83;;;10.40;99.90;;;;;;5016288;28;20108;-67
2023/10/27 12:35:27;;;;;;;5.32;3.22;;;10.40;99.90;;;;;;5019704;28;20425;-67
2023/10/27 12:37:56;;;;;;;6.38;2.25;;;10.40;99.90;;;;;;5014048;28;20066;-67
2023/10/27 12:40:24;;;;;;;6.43;3.67;;;10.40;99.90;;;;;;5012539;28;20485;-67
2023/10/27 12:42:51;;;;;;;4.88;2.40;;;10.40;99.90;;;;;;5018329;28;20050;-67
2023/10/27 12:45:17;;;;;;;4.60;2.90;;;10.30;99.90;;;;;;5017440;28;20069;-67
2023/10/27 12:47:48;;;;;;;5.72;2.88;;;10.30;99.90;;;;;;5012883;28;20042;-67
2023/10/27 12:50:14;;;;;;;4.82;2.75;;;10.30;99.90;;;;;;5013682;28;20555;-66
2023/10/27 12:52:40;;;;;;;4.25;2.63;;;10.40;99.90;;;;;;5020533;28;20386;-67
2023/10/27 12:55:07;;;;;;;6.00;2.80;;;10.40;99.90;;;;;;5020836;28;20040;-66
2023/10/27 12:57:33;;;;;;;5.43;3.03;;;10.40;99.90;;;;;;5010033;28;20038;-66